Time;durP1;ratioP1;P1;durP2;ratioP2;P2;SDS_P1;SDS_P2;PMS_P1;PMS_P2;Temp;Humidity;BMP_temperature;BMP_pressure;BME280_temperature;BME280_humidity;BME280_pressure;Samples;Min_cycle;Max_cycle;Signal;HPM_P1;HPM_P2
2022/10/25 00:02:18;;;;;;;2.10;1.97;;;12.20;99.90;;;;;;5021374;28;20022;-72
2022/10/25 00:04:44;;;;;;;2.47;2.28;;;14.20;99.90;;;;;;5029803;28;20504;-72
2022/10/25 00:07:10;;;;;;;1.75;1.05;;;12.40;99.90;;;;;;5029612;28;20029;-72
2022/10/25 00:09:35;;;;;;;2.50;2.03;;;12.40;99.90;;;;;;5030200;28;20095;-72
2022/10/25 00:12:01;;;;;;;1.20;1.20;;;14.10;99.90;;;;;;5029731;28;20029;-72
2022/10/25 00:14:27;;;;;;;2.37;1.93;;;12.30;99.90;;;;;;5029550;28;20049;-72
2022/10/25 00:16:52;;;;;;;1.67;1.33;;;12.30;99.90;;;;;;5028972;28;20255;-72
2022/10/25 00:19:18;;;;;;;2.77;2.57;;;12.30;99.90;;;;;;5030288;28;20117;-72
2022/10/25 00:21:43;;;;;;;3.80;3.23;;;12.30;99.90;;;;;;5031457;28;20369;-72
2022/10/25 00:24:11;;;;;;;1.70;1.60;;;12.30;99.90;;;;;;5030295;28;20069;-71
2022/10/25 00:26:40;;;;;;;1.98;1.83;;;12.30;99.90;;;;;;5030050;28;20026;-72
2022/10/25 00:29:05;;;;;;;2.45;2.33;;;12.10;99.90;;;;;;5027573;28;20030;-71
2022/10/25 00:31:31;;;;;;;3.10;2.77;;;12.00;99.90;;;;;;5030920;28;20042;-73
2022/10/25 00:33:57;;;;;;;1.17;1.17;;;12.00;99.90;;;;;;5029769;28;20115;-70
2022/10/25 00:36:25;;;;;;;1.07;1.07;;;12.00;99.90;;;;;;5029813;28;20022;-72
2022/10/25 00:38:51;;;;;;;2.25;2.13;;;12.00;99.90;;;;;;5028907;28;20229;-72
2022/10/25 00:41:22;;;;;;;3.60;2.42;;;12.80;99.90;;;;;;5029974;28;20025;-72
2022/10/25 00:43:53;;;;;;;3.63;3.33;;;12.10;99.90;;;;;;5027162;28;20033;-72
2022/10/25 00:46:19;;;;;;;5.78;3.13;;;12.00;99.90;;;;;;5028848;28;20033;-72
2022/10/25 00:48:50;;;;;;;2.90;2.63;;;12.00;99.90;;;;;;5029849;28;20383;-72
2022/10/25 00:51:16;;;;;;;1.27;1.20;;;12.00;99.90;;;;;;5030057;28;20103;-72
2022/10/25 00:53:42;;;;;;;2.73;2.47;;;12.00;99.90;;;;;;5029771;28;20480;-72
2022/10/25 00:56:14;;;;;;;3.40;3.00;;;12.00;99.90;;;;;;5027418;28;20030;-72
2022/10/25 00:58:42;;;;;;;2.85;1.90;;;12.00;99.90;;;;;;5028741;28;20037;-73
2022/10/25 01:01:09;;;;;;;1.80;1.70;;;12.00;99.90;;;;;;5029850;28;20033;-72
2022/10/25 01:03:37;;;;;;;2.85;1.92;;;12.00;99.90;;;;;;5027412;28;20520;-73
2022/10/25 01:06:06;;;;;;;1.05;1.02;;;11.90;99.90;;;;;;5028131;28;20037;-71
2022/10/25 01:08:33;;;;;;;6.72;3.95;;;11.90;99.90;;;;;;5028871;28;20030;-72
2022/10/25 01:10:58;;;;;;;2.80;2.60;;;11.90;99.90;;;;;;5029440;28;20041;-71
2022/10/25 01:13:24;;;;;;;3.37;3.17;;;11.80;99.90;;;;;;5029214;28;20055;-71
2022/10/25 01:15:59;;;;;;;4.50;4.10;;;11.90;99.90;;;;;;5029250;28;20033;-73
2022/10/25 01:18:48;;;;;;;5.55;2.58;;;11.90;99.90;;;;;;5027008;28;20037;-74
2022/10/25 01:21:26;;;;;;;3.40;3.10;;;11.90;99.90;;;;;;5029715;28;20026;-71
2022/10/25 01:24:25;;;;;;;3.10;2.88;;;11.90;99.90;;;;;;5029393;28;20489;-72
2022/10/25 01:26:59;;;;;;;5.07;3.22;;;11.80;99.90;;;;;;5027297;28;20123;-72
2022/10/25 01:29:52;;;;;;;7.18;2.72;;;11.80;99.90;;;;;;5028760;28;20045;-72
2022/10/25 01:32:30;;;;;;;2.63;2.42;;;11.80;99.90;;;;;;5010449;28;20038;-73
2022/10/25 01:35:11;;;;;;;12.60;4.28;;;11.70;99.90;;;;;;5027685;28;20102;-72
2022/10/25 01:37:55;;;;;;;2.08;1.98;;;11.70;99.90;;;;;;5029693;28;20090;-73
2022/10/25 01:40:21;;;;;;;2.42;2.22;;;11.70;99.90;;;;;;5026739;28;20041;-73
2022/10/25 01:43:05;;;;;;;4.30;4.00;;;11.70;99.90;;;;;;5029175;28;20525;-72
2022/10/25 01:45:40;;;;;;;6.72;3.15;;;11.70;99.90;;;;;;5019076;28;20113;-71
2022/10/25 01:48:32;;;;;;;6.07;5.47;;;11.60;99.90;;;;;;5030851;28;20041;-71
2022/10/25 01:51:05;;;;;;;4.03;3.63;;;11.60;99.90;;;;;;5030535;28;20046;-71
2022/10/25 01:53:30;;;;;;;4.60;3.90;;;11.60;99.90;;;;;;5031032;28;20029;-71
2022/10/25 01:56:01;;;;;;;5.97;2.60;;;11.50;99.90;;;;;;5041742;28;20507;-72
2022/10/25 01:59:11;;;;;;;3.53;2.58;;;11.50;99.90;;;;;;5019667;28;20044;-72
2022/10/25 02:01:53;;;;;;;3.72;3.08;;;11.40;99.90;;;;;;5030117;28;20044;-71
2022/10/25 02:04:31;;;;;;;3.17;2.90;;;11.40;99.90;;;;;;5030842;28;20052;-72
2022/10/25 02:07:05;;;;;;;1.60;1.50;;;11.40;99.90;;;;;;5029739;28;20026;-73
2022/10/25 02:09:46;;;;;;;4.97;4.55;;;11.30;99.90;;;;;;5027090;28;20467;-72
2022/10/25 02:12:20;;;;;;;1.30;1.20;;;11.20;99.90;;;;;;5028148;28;20498;-72
2022/10/25 02:15:01;;;;;;;1.60;1.50;;;11.20;99.90;;;;;;5027468;28;20061;-71
2022/10/25 02:17:27;;;;;;;3.63;3.25;;;11.30;99.90;;;;;;5031502;28;20059;-72
2022/10/25 02:19:57;;;;;;;2.13;1.83;;;11.40;99.90;;;;;;5032610;28;20406;-72
2022/10/25 02:22:25;;;;;;;3.05;2.75;;;11.20;99.90;;;;;;5031538;28;20332;-72
2022/10/25 02:24:54;;;;;;;1.52;1.42;;;11.20;99.90;;;;;;5029404;28;20064;-72
2022/10/25 02:27:22;;;;;;;2.20;2.10;;;11.20;99.90;;;;;;5031724;28;20071;-72
2022/10/25 02:29:49;;;;;;;6.88;5.10;;;11.10;99.90;;;;;;5031872;28;20113;-71
2022/10/25 02:32:14;;;;;;;4.57;4.07;;;11.20;99.90;;;;;;5031454;28;20037;-72
2022/10/25 02:34:40;;;;;;;2.93;2.73;;;11.20;99.90;;;;;;5030233;28;20481;-73
2022/10/25 02:37:06;;;;;;;5.05;4.50;;;11.10;99.90;;;;;;5032225;28;20485;-71
2022/10/25 02:39:32;;;;;;;4.37;3.23;;;11.00;99.90;;;;;;5030732;28;20438;-72
2022/10/25 02:42:01;;;;;;;3.03;2.83;;;11.00;99.90;;;;;;5030642;28;20522;-72
2022/10/25 02:44:26;;;;;;;3.13;2.92;;;11.00;99.90;;;;;;5030841;28;20570;-72
2022/10/25 02:46:52;;;;;;;1.67;1.57;;;10.90;99.90;;;;;;5031776;28;20117;-73
2022/10/25 02:49:18;;;;;;;1.90;1.80;;;12.60;99.90;;;;;;5032010;28;20053;-71
2022/10/25 02:51:43;;;;;;;1.73;1.60;;;10.90;99.90;;;;;;5031339;28;20384;-71
2022/10/25 02:54:09;;;;;;;3.90;2.97;;;10.90;99.90;;;;;;5031831;28;20036;-71
2022/10/25 02:56:35;;;;;;;2.60;1.73;;;10.80;99.90;;;;;;5031250;28;20059;-72
2022/10/25 02:59:00;;;;;;;2.83;2.57;;;10.90;99.90;;;;;;5029252;28;20065;-73
2022/10/25 03:01:26;;;;;;;2.17;2.07;;;10.90;99.90;;;;;;5031373;28;20031;-72
2022/10/25 03:03:52;;;;;;;2.03;1.90;;;10.90;99.90;;;;;;5028879;28;20028;-72
2022/10/25 03:06:17;;;;;;;3.13;2.90;;;10.90;99.90;;;;;;5030563;28;20126;-72
2022/10/25 03:08:43;;;;;;;1.70;1.63;;;10.80;99.90;;;;;;5030664;28;20037;-72
2022/10/25 03:11:11;;;;;;;1.53;1.47;;;11.30;99.90;;;;;;5029229;28;20037;-72
2022/10/25 03:13:37;;;;;;;1.83;1.73;;;10.90;99.90;;;;;;5030480;28;20278;-73
2022/10/25 03:16:03;;;;;;;2.13;2.03;;;10.90;99.90;;;;;;5031293;28;20035;-72
2022/10/25 03:18:29;;;;;;;0.60;0.60;;;10.90;99.90;;;;;;5031253;28;20041;-72
2022/10/25 03:21:00;;;;;;;2.77;2.57;;;10.90;99.90;;;;;;5031207;28;20097;-73
2022/10/25 03:23:26;;;;;;;1.55;1.45;;;10.90;99.90;;;;;;5030600;28;20112;-72
2022/10/25 03:25:53;;;;;;;7.32;2.70;;;10.90;99.90;;;;;;5030990;28;20473;-72
2022/10/25 03:28:19;;;;;;;;;;;11.00;99.90;;;;;;5029915;28;20121;-72
2022/10/25 03:30:44;;;;;;;7.95;4.18;;;11.00;99.90;;;;;;5032593;28;20003;-72
2022/10/25 03:33:10;;;;;;;3.43;3.17;;;11.00;99.90;;;;;;5031975;28;20055;-73
2022/10/25 03:35:35;;;;;;;3.07;2.83;;;11.10;99.90;;;;;;5030695;28;20045;-72
2022/10/25 03:38:01;;;;;;;1.43;1.23;;;11.10;99.90;;;;;;5030317;28;20501;-71
2022/10/25 03:40:27;;;;;;;0.90;0.90;;;10.70;99.90;;;;;;5031843;28;20461;-72
2022/10/25 03:42:52;;;;;;;1.70;1.60;;;11.20;99.90;;;;;;5031069;28;20031;-71
2022/10/25 03:45:18;;;;;;;1.73;1.63;;;11.30;99.90;;;;;;5030370;28;20037;-72
2022/10/25 03:47:44;;;;;;;2.30;2.10;;;12.50;99.90;;;;;;5029950;28;20053;-71
2022/10/25 03:50:10;;;;;;;2.53;2.33;;;11.40;99.90;;;;;;5030351;28;20038;-73
2022/10/25 03:52:35;;;;;;;2.63;2.43;;;11.40;99.90;;;;;;5030811;28;20033;-72
2022/10/25 03:55:01;;;;;;;2.30;2.10;;;11.50;99.90;;;;;;5029481;28;20073;-73
2022/10/25 03:57:26;;;;;;;3.07;2.40;;;11.50;99.90;;;;;;5029984;28;20025;-72
2022/10/25 03:59:52;;;;;;;1.73;1.47;;;11.60;99.90;;;;;;5029289;28;20030;-72
2022/10/25 04:02:18;;;;;;;2.20;2.00;;;11.60;99.90;;;;;;5031752;28;20060;-72
2022/10/25 04:04:43;;;;;;;1.97;1.67;;;11.60;99.90;;;;;;5030461;28;20056;-72
2022/10/25 04:07:09;;;;;;;5.77;2.40;;;11.60;99.90;;;;;;5030842;28;20033;-72
2022/10/25 04:09:34;;;;;;;3.10;2.33;;;11.60;99.90;;;;;;5028859;28;20485;-74
2022/10/25 04:12:00;;;;;;;4.87;1.57;;;11.70;99.90;;;;;;5029911;28;20026;-72
2022/10/25 04:14:25;;;;;;;1.73;1.63;;;11.70;99.90;;;;;;5029822;28;20033;-72
2022/10/25 04:16:51;;;;;;;2.17;1.97;;;11.80;99.90;;;;;;5030419;28;20064;-73
2022/10/25 04:19:17;;;;;;;2.03;1.93;;;11.80;99.90;;;;;;5030478;28;20076;-73
2022/10/25 04:21:42;;;;;;;5.73;2.47;;;11.90;99.90;;;;;;5029560;28;20079;-71
2022/10/25 04:24:08;;;;;;;1.60;1.50;;;11.80;99.90;;;;;;5030989;28;20022;-73
2022/10/25 04:26:35;;;;;;;1.23;1.23;;;11.90;99.90;;;;;;5028270;28;20063;-73
2022/10/25 04:29:01;;;;;;;1.70;1.15;;;11.90;99.90;;;;;;5028008;28;20025;-72
2022/10/25 04:31:27;;;;;;;3.60;3.17;;;11.90;99.90;;;;;;5029359;28;20040;-71
2022/10/25 04:33:54;;;;;;;1.67;1.57;;;12.00;99.90;;;;;;5030011;28;20041;-71
2022/10/25 04:36:21;;;;;;;5.22;1.75;;;12.00;99.90;;;;;;5029983;28;20048;-72
2022/10/25 04:38:48;;;;;;;2.13;1.05;;;12.00;99.90;;;;;;5030288;28;20128;-72
2022/10/25 04:41:13;;;;;;;1.85;1.27;;;12.00;99.90;;;;;;5030142;28;20048;-72
2022/10/25 04:43:39;;;;;;;1.53;1.43;;;11.90;99.90;;;;;;5029532;28;20029;-74
2022/10/25 04:46:05;;;;;;;2.07;1.90;;;11.90;99.90;;;;;;5027624;28;20037;-72
2022/10/25 04:48:30;;;;;;;1.30;1.27;;;11.90;99.90;;;;;;5029625;28;20045;-72
2022/10/25 04:50:59;;;;;;;0.63;0.63;;;11.90;99.90;;;;;;5030183;28;20100;-71
2022/10/25 04:53:25;;;;;;;1.05;1.05;;;12.00;99.90;;;;;;5029074;28;20093;-72
2022/10/25 04:56:03;;;;;;;0.93;0.93;;;12.00;99.90;;;;;;5030159;28;20175;-73
2022/10/25 04:58:29;;;;;;;2.33;2.08;;;12.10;99.90;;;;;;5028621;28;20030;-73
2022/10/25 05:01:05;;;;;;;4.90;1.63;;;12.20;99.90;;;;;;5031054;28;20377;-73
2022/10/25 05:03:31;;;;;;;1.40;1.30;;;12.10;99.90;;;;;;5028898;28;20026;-73
2022/10/25 05:06:25;;;;;;;1.75;1.65;;;12.10;99.90;;;;;;5027544;28;20128;-72
2022/10/25 05:08:52;;;;;;;0.77;0.77;;;12.20;99.90;;;;;;5029411;28;20060;-72
2022/10/25 05:11:19;;;;;;;1.33;1.23;;;12.20;99.90;;;;;;5027656;28;20172;-73
2022/10/25 05:13:46;;;;;;;3.50;1.85;;;12.20;99.90;;;;;;5029700;28;20476;-72
2022/10/25 05:16:16;;;;;;;1.35;1.25;;;12.20;99.90;;;;;;5030108;28;20037;-72
2022/10/25 05:18:44;;;;;;;0.75;0.75;;;12.30;99.90;;;;;;5028077;28;20473;-72
2022/10/25 05:21:10;;;;;;;0.88;0.88;;;12.40;99.90;;;;;;5030849;28;20469;-72
2022/10/25 05:23:35;;;;;;;3.50;1.27;;;12.30;99.90;;;;;;5029714;28;20041;-72
2022/10/25 05:26:07;;;;;;;3.10;2.70;;;12.30;99.90;;;;;;5027874;28;20038;-71
2022/10/25 05:28:34;;;;;;;2.78;2.08;;;12.30;99.90;;;;;;5026142;28;20366;-72
2022/10/25 05:31:07;;;;;;;1.30;1.23;;;12.30;99.90;;;;;;5028858;28;20377;-72
2022/10/25 05:33:33;;;;;;;1.25;1.15;;;12.30;99.90;;;;;;5029541;28;20087;-73
2022/10/25 05:36:00;;;;;;;1.07;1.03;;;12.40;99.90;;;;;;5028848;28;20505;-73
2022/10/25 05:38:26;;;;;;;;;;;12.40;99.90;;;;;;5028608;28;20520;-72
2022/10/25 05:40:57;;;;;;;0.98;0.98;;;12.40;99.90;;;;;;5027849;28;19917;-74
2022/10/25 05:43:23;;;;;;;1.98;1.83;;;12.50;99.90;;;;;;5029276;28;20496;-72
2022/10/25 05:45:50;;;;;;;2.15;1.95;;;12.50;99.90;;;;;;5029317;28;20033;-73
2022/10/25 05:48:17;;;;;;;1.10;1.10;;;12.50;99.90;;;;;;5029391;28;20358;-73
2022/10/25 05:50:43;;;;;;;3.00;2.22;;;12.50;99.90;;;;;;5029356;28;20396;-73
2022/10/25 05:53:09;;;;;;;2.28;2.13;;;12.60;99.90;;;;;;5032805;28;20026;-73
2022/10/25 05:55:35;;;;;;;2.50;2.30;;;12.60;99.90;;;;;;5032409;28;20086;-74
2022/10/25 05:58:02;;;;;;;2.63;2.42;;;12.60;99.90;;;;;;5031162;28;20401;-74
2022/10/25 06:00:28;;;;;;;1.95;1.83;;;12.60;99.90;;;;;;5033653;28;20046;-72
2022/10/25 06:02:53;;;;;;;1.67;1.57;;;12.60;99.90;;;;;;5032229;28;20140;-73
2022/10/25 06:05:20;;;;;;;1.47;1.37;;;12.60;99.90;;;;;;5032310;28;20029;-74
2022/10/25 06:07:46;;;;;;;;;;;12.60;99.90;;;;;;5032332;28;20025;-73
2022/10/25 06:10:11;;;;;;;3.88;1.42;;;12.60;99.90;;;;;;5031386;28;19970;-71
2022/10/25 06:12:37;;;;;;;3.10;2.27;;;12.60;99.90;;;;;;5031624;28;20400;-72
2022/10/25 06:15:03;;;;;;;0.73;0.73;;;12.50;99.90;;;;;;5031638;28;20029;-71
2022/10/25 06:17:28;;;;;;;3.13;2.87;;;12.50;99.90;;;;;;5032858;28;20325;-72
2022/10/25 06:19:54;;;;;;;2.07;1.67;;;12.50;99.90;;;;;;5030060;28;20377;-72
2022/10/25 06:22:19;;;;;;;1.13;1.10;;;12.40;99.90;;;;;;5032812;28;20037;-72
2022/10/25 06:24:45;;;;;;;1.53;1.43;;;12.50;99.90;;;;;;5032856;28;20026;-72
2022/10/25 06:27:10;;;;;;;1.50;1.40;;;12.40;99.90;;;;;;5032825;28;20528;-74
2022/10/25 06:29:36;;;;;;;3.13;2.83;;;12.50;99.90;;;;;;5030859;28;20030;-73
2022/10/25 06:32:02;;;;;;;1.13;1.13;;;12.50;99.90;;;;;;5031213;28;20056;-73
2022/10/25 06:34:28;;;;;;;1.90;1.80;;;12.50;99.90;;;;;;5031725;28;20042;-73
2022/10/25 06:36:53;;;;;;;3.20;2.57;;;12.60;99.90;;;;;;5031606;28;20499;-73
2022/10/25 06:39:19;;;;;;;1.10;1.07;;;12.70;99.90;;;;;;5032228;28;20107;-73
2022/10/25 06:41:44;;;;;;;2.33;2.07;;;12.70;99.90;;;;;;5031528;28;20029;-72
2022/10/25 06:44:10;;;;;;;3.10;1.50;;;12.70;99.90;;;;;;5030555;28;20025;-74
2022/10/25 06:46:37;;;;;;;1.77;1.57;;;13.10;99.90;;;;;;5016650;28;20052;-73
2022/10/25 06:49:05;;;;;;;0.80;0.75;;;13.30;99.90;;;;;;5030968;28;20295;-72
2022/10/25 06:51:33;;;;;;;3.63;1.67;;;13.50;99.90;;;;;;5031979;28;20042;-72
2022/10/25 06:54:00;;;;;;;3.75;1.48;;;13.80;99.90;;;;;;5032142;28;20017;-72
2022/10/25 06:56:27;;;;;;;4.05;3.10;;;14.10;99.90;;;;;;5030826;28;20057;-72
2022/10/25 06:58:53;;;;;;;3.15;1.63;;;14.30;99.90;;;;;;5031490;28;20037;-69
2022/10/25 07:01:20;;;;;;;1.83;1.50;;;14.50;99.90;;;;;;5031752;28;20036;-70
2022/10/25 07:03:46;;;;;;;1.20;1.17;;;14.60;99.90;;;;;;5028884;28;20033;-70
2022/10/25 07:06:12;;;;;;;1.40;1.30;;;14.60;99.90;;;;;;5032440;28;20433;-71
2022/10/25 07:08:43;;;;;;;0.82;0.82;;;14.50;99.90;;;;;;5031257;28;20030;-71
2022/10/25 07:11:18;;;;;;;2.13;2.00;;;14.30;99.90;;;;;;5032268;28;20104;-70
2022/10/25 07:13:44;;;;;;;1.40;1.25;;;14.20;99.90;;;;;;5031157;28;20025;-71
2022/10/25 07:16:12;;;;;;;1.97;1.87;;;14.20;99.90;;;;;;5030306;28;20022;-70
2022/10/25 07:18:38;;;;;;;1.55;1.45;;;14.10;99.90;;;;;;5031641;28;20029;-71
2022/10/25 07:21:13;;;;;;;4.10;2.23;;;14.20;99.90;;;;;;5032114;28;20034;-69
2022/10/25 07:23:43;;;;;;;2.58;2.38;;;14.30;99.90;;;;;;5030731;28;20095;-69
2022/10/25 07:26:14;;;;;;;3.38;1.88;;;14.40;99.90;;;;;;5032026;28;20045;-68
2022/10/25 07:28:42;;;;;;;2.92;2.72;;;14.50;99.90;;;;;;5030475;28;20038;-70
2022/10/25 07:31:11;;;;;;;1.40;1.30;;;14.80;99.90;;;;;;5030825;28;20026;-73
2022/10/25 07:33:37;;;;;;;1.60;1.50;;;14.80;99.90;;;;;;5028170;28;20029;-75
2022/10/25 07:36:03;;;;;;;2.87;0.87;;;14.80;99.90;;;;;;5028156;28;20026;-73
2022/10/25 07:38:29;;;;;;;1.67;1.57;;;14.90;99.90;;;;;;5030907;28;20029;-73
2022/10/25 07:40:56;;;;;;;3.67;3.37;;;14.90;99.90;;;;;;5031005;28;20541;-73
2022/10/25 07:43:21;;;;;;;2.55;2.35;;;15.20;99.90;;;;;;5029192;28;20366;-73
2022/10/25 07:45:49;;;;;;;1.57;1.27;;;15.20;99.90;;;;;;5030472;28;20040;-73
2022/10/25 07:48:14;;;;;;;0.95;0.93;;;15.20;99.90;;;;;;5028711;28;20046;-73
2022/10/25 07:50:40;;;;;;;1.97;1.80;;;15.50;99.90;;;;;;5031819;28;20527;-73
2022/10/25 07:53:05;;;;;;;1.53;1.43;;;15.20;99.90;;;;;;5029415;28;20508;-74
2022/10/25 07:55:31;;;;;;;1.03;1.03;;;15.20;99.90;;;;;;5031320;28;20049;-73
2022/10/25 07:58:02;;;;;;;0.50;0.50;;;15.00;99.90;;;;;;5030551;28;20077;-73
2022/10/25 08:00:27;;;;;;;1.73;1.58;;;15.00;99.90;;;;;;5030945;28;20485;-74
2022/10/25 08:02:53;;;;;;;1.83;1.67;;;14.90;99.90;;;;;;5029317;28;20032;-74
2022/10/25 08:05:18;;;;;;;3.07;2.47;;;15.00;99.90;;;;;;5029751;28;20379;-73
2022/10/25 08:07:44;;;;;;;19.50;3.17;;;15.00;99.90;;;;;;5028677;28;20018;-72
2022/10/25 08:10:10;;;;;;;3.10;1.57;;;15.00;99.90;;;;;;5030395;28;20064;-72
2022/10/25 08:12:35;;;;;;;0.70;0.70;;;15.00;99.90;;;;;;5030768;28;20087;-73
2022/10/25 08:15:01;;;;;;;2.63;2.40;;;15.00;99.90;;;;;;5028776;28;20079;-74
2022/10/25 08:17:26;;;;;;;1.77;1.40;;;15.00;99.90;;;;;;5028168;28;20033;-74
2022/10/25 08:19:52;;;;;;;2.77;2.47;;;15.00;99.90;;;;;;5028561;28;20041;-73
2022/10/25 08:22:18;;;;;;;2.03;1.60;;;15.00;99.90;;;;;;5030113;28;20358;-72
2022/10/25 08:24:43;;;;;;;1.10;1.10;;;15.10;99.90;;;;;;5032192;28;20021;-72
2022/10/25 08:27:09;;;;;;;1.70;1.60;;;15.10;99.90;;;;;;5032766;28;20025;-73
2022/10/25 08:29:34;;;;;;;3.60;3.30;;;15.00;99.90;;;;;;5031829;28;20029;-73
2022/10/25 08:32:00;;;;;;;1.93;1.83;;;15.00;99.90;;;;;;5030073;28;20038;-73
2022/10/25 08:34:25;;;;;;;3.23;1.33;;;15.00;99.90;;;;;;5031503;28;20305;-72
2022/10/25 08:36:51;;;;;;;0.97;0.97;;;15.10;99.90;;;;;;5030655;28;20037;-73
2022/10/25 08:39:17;;;;;;;1.10;1.10;;;15.00;99.90;;;;;;5030640;28;20516;-74
2022/10/25 08:41:55;;;;;;;1.73;1.63;;;15.00;99.90;;;;;;5030864;28;20116;-74
2022/10/25 08:44:39;;;;;;;2.38;1.98;;;15.10;99.90;;;;;;5030609;28;20509;-73
2022/10/25 08:47:33;;;;;;;2.30;1.60;;;15.10;99.90;;;;;;5029101;28;20594;-73
2022/10/25 08:50:02;;;;;;;1.85;1.23;;;15.00;99.90;;;;;;5030227;28;20070;-74
2022/10/25 08:52:44;;;;;;;2.53;2.33;;;15.00;99.90;;;;;;5029821;28;20650;-73
2022/10/25 08:55:22;;;;;;;2.30;2.20;;;15.00;99.90;;;;;;5028728;28;20108;-73
2022/10/25 08:57:49;;;;;;;;;;;15.00;99.90;;;;;;5030329;28;20155;-73
2022/10/25 09:00:19;;;;;;;2.75;2.53;;;15.10;99.90;;;;;;5028019;28;20011;-75
2022/10/25 09:02:56;;;;;;;1.48;1.38;;;15.00;99.90;;;;;;5028280;28;20060;-73
2022/10/25 09:05:48;;;;;;;1.50;1.40;;;15.00;99.90;;;;;;5028685;28;20037;-73
2022/10/25 09:08:46;;;;;;;2.78;2.20;;;14.90;99.90;;;;;;5028511;28;20079;-73
2022/10/25 09:11:24;;;;;;;1.35;1.25;;;14.90;99.90;;;;;;5029364;28;20064;-73
2022/10/25 09:13:58;;;;;;;3.42;0.85;;;14.80;99.90;;;;;;5029573;28;20029;-73
2022/10/25 09:16:51;;;;;;;2.28;1.67;;;14.70;99.90;;;;;;5030455;28;20041;-68
2022/10/25 09:19:24;;;;;;;3.05;2.83;;;14.70;99.90;;;;;;5028545;28;20491;-70
2022/10/25 09:21:55;;;;;;;1.17;1.13;;;14.70;99.90;;;;;;5028762;28;20056;-67
2022/10/25 09:24:47;;;;;;;3.15;2.88;;;14.80;99.90;;;;;;5029718;28;20033;-69
2022/10/25 09:27:34;;;;;;;16.65;2.95;;;14.80;99.90;;;;;;5027492;28;20038;-68
2022/10/25 09:30:05;;;;;;;1.07;1.07;;;14.80;99.90;;;;;;5028685;28;20033;-68
2022/10/25 09:32:47;;;;;;;1.25;1.15;;;14.70;99.90;;;;;;5016499;28;20628;-69
2022/10/25 09:35:16;;;;;;;1.95;1.83;;;14.70;99.90;;;;;;5028967;28;20299;-71
2022/10/25 09:37:48;;;;;;;2.58;2.38;;;14.60;99.90;;;;;;5029081;28;20079;-68
2022/10/25 09:40:20;;;;;;;2.10;1.67;;;14.70;99.90;;;;;;5026799;28;20080;-67
2022/10/25 09:42:55;;;;;;;1.52;1.45;;;14.40;99.90;;;;;;5011833;28;20358;-68
2022/10/25 09:45:41;;;;;;;1.85;1.75;;;14.80;99.90;;;;;;5030126;28;20029;-68
2022/10/25 09:48:30;;;;;;;1.52;1.42;;;14.50;99.90;;;;;;5028663;28;20041;-67
2022/10/25 09:51:08;;;;;;;1.60;1.50;;;15.10;99.90;;;;;;5027009;28;20030;-69
2022/10/25 09:53:39;;;;;;;2.83;2.60;;;14.80;99.90;;;;;;5028745;28;20046;-69
2022/10/25 09:56:05;;;;;;;3.20;2.92;;;;;;;;;;5029739;28;20124;-69
2022/10/25 09:58:38;;;;;;;1.38;1.27;;;14.70;99.90;;;;;;5027736;28;20420;-68
2022/10/25 10:01:12;;;;;;;1.92;1.83;;;14.70;99.90;;;;;;5027010;28;20036;-68
2022/10/25 10:03:40;;;;;;;2.53;2.33;;;14.90;99.90;;;;;;5028374;28;20112;-68
2022/10/25 10:06:21;;;;;;;1.58;1.48;;;14.60;99.90;;;;;;5027893;28;20028;-69
2022/10/25 10:08:55;;;;;;;3.85;2.70;;;14.70;99.90;;;;;;5028935;28;20044;-68
2022/10/25 10:11:21;;;;;;;1.35;1.30;;;14.00;99.90;;;;;;5029648;28;20038;-69
2022/10/25 10:14:06;;;;;;;4.30;2.23;;;14.70;99.90;;;;;;5027597;28;20052;-68
2022/10/25 10:16:40;;;;;;;2.30;2.10;;;14.60;99.90;;;;;;5028525;28;20121;-69
2022/10/25 10:19:24;;;;;;;1.30;1.20;;;14.70;99.90;;;;;;5026156;28;20084;-68
2022/10/25 10:22:07;;;;;;;0.82;0.82;;;14.60;99.90;;;;;;5027278;28;20559;-68
2022/10/25 10:24:38;;;;;;;1.33;1.23;;;14.60;99.90;;;;;;5028751;28;20068;-68
2022/10/25 10:27:10;;;;;;;1.55;1.45;;;14.60;99.90;;;;;;5028643;28;20041;-69
2022/10/25 10:29:37;;;;;;;1.40;1.30;;;14.60;99.90;;;;;;5025189;28;20048;-68
2022/10/25 10:32:33;;;;;;;1.95;0.95;;;14.60;99.90;;;;;;5024835;28;20092;-69
2022/10/25 10:35:00;;;;;;;15.82;1.38;;;14.60;99.90;;;;;;5012066;28;20129;-68
2022/10/25 10:37:27;;;;;;;2.53;1.17;;;14.60;99.90;;;;;;5015833;28;20109;-67
2022/10/25 10:39:54;;;;;;;1.50;1.40;;;14.60;99.90;;;;;;5026856;28;20041;-71
2022/10/25 10:42:22;;;;;;;2.80;1.58;;;14.60;99.90;;;;;;5030764;28;20060;-70
2022/10/25 10:45:10;;;;;;;2.30;1.77;;;14.60;99.90;;;;;;5025209;28;20033;-68
2022/10/25 10:47:44;;;;;;;0.77;0.77;;;14.60;99.90;;;;;;5019155;28;20042;-68
2022/10/25 10:50:19;;;;;;;2.35;2.15;;;14.60;99.90;;;;;;5021006;28;20033;-68
2022/10/25 10:52:46;;;;;;;0.40;0.40;;;14.60;99.90;;;;;;5024688;28;20125;-69
2022/10/25 10:55:44;;;;;;;1.27;1.17;;;14.60;99.90;;;;;;5029757;28;20702;-69
2022/10/25 10:58:16;;;;;;;1.35;1.23;;;14.70;99.90;;;;;;5025380;28;20048;-68
2022/10/25 11:01:00;;;;;;;2.88;2.35;;;14.70;99.90;;;;;;5025454;28;20052;-68
2022/10/25 11:03:36;;;;;;;1.73;1.63;;;14.70;99.90;;;;;;5028595;28;20029;-69
2022/10/25 11:06:05;;;;;;;2.40;2.00;;;14.60;99.90;;;;;;5032896;28;20067;-67
2022/10/25 11:08:31;;;;;;;2.80;1.60;;;14.50;99.90;;;;;;5027393;28;20034;-68
2022/10/25 11:11:11;;;;;;;1.80;1.63;;;14.50;99.90;;;;;;5023335;28;20614;-68
2022/10/25 11:13:37;;;;;;;0.95;0.95;;;14.50;99.90;;;;;;5026453;28;20159;-68
2022/10/25 11:16:08;;;;;;;1.10;0.80;;;14.60;99.90;;;;;;5030422;28;20112;-67
2022/10/25 11:18:46;;;;;;;1.00;1.00;;;14.50;99.90;;;;;;5017175;28;20403;-68
2022/10/25 11:21:29;;;;;;;2.38;1.75;;;14.50;99.90;;;;;;5028385;28;20445;-69
2022/10/25 11:23:57;;;;;;;1.85;1.73;;;14.50;99.90;;;;;;5025976;28;20025;-68
2022/10/25 11:26:41;;;;;;;0.85;0.85;;;14.50;99.90;;;;;;5029242;28;20176;-68
2022/10/25 11:29:19;;;;;;;0.57;0.57;;;14.50;99.90;;;;;;5028095;28;20068;-67
2022/10/25 11:32:07;;;;;;;1.48;1.38;;;14.60;99.90;;;;;;5033519;28;20337;-69
2022/10/25 11:34:38;;;;;;;1.52;1.42;;;14.70;99.90;;;;;;5026367;28;20384;-67
2022/10/25 11:37:30;;;;;;;1.35;1.13;;;14.70;99.90;;;;;;5031150;28;20137;-68
2022/10/25 11:40:15;;;;;;;1.10;1.08;;;14.80;99.90;;;;;;5029036;28;20041;-69
2022/10/25 11:43:11;;;;;;;1.30;1.20;;;14.70;99.90;;;;;;5028533;28;20037;-67
2022/10/25 11:45:49;;;;;;;0.50;0.50;;;14.70;99.90;;;;;;5022997;28;20369;-68
2022/10/25 11:48:30;;;;;;;1.90;1.77;;;14.70;99.90;;;;;;5017931;28;20536;-69
2022/10/25 11:51:12;;;;;;;1.20;1.05;;;14.70;99.90;;;;;;5024002;28;20025;-68
2022/10/25 11:53:50;;;;;;;1.80;1.70;;;14.70;99.90;;;;;;5027043;28;20414;-68
2022/10/25 11:56:23;;;;;;;2.10;1.65;;;14.80;99.90;;;;;;5032729;28;20083;-68
2022/10/25 11:59:13;;;;;;;0.88;0.88;;;14.80;99.90;;;;;;5028812;28;20427;-69
2022/10/25 12:02:02;;;;;;;1.13;1.00;;;14.90;99.90;;;;;;5040899;28;20112;-69
2022/10/25 12:04:40;;;;;;;0.30;0.30;;;14.90;99.90;;;;;;5030487;28;20018;-67
2022/10/25 12:07:35;;;;;;;1.23;1.15;;;15.00;99.90;;;;;;5027532;28;20103;-68
2022/10/25 12:10:13;;;;;;;0.90;0.90;;;14.90;99.90;;;;;;5016493;28;20044;-69
2022/10/25 12:12:47;;;;;;;1.63;1.52;;;14.90;99.90;;;;;;5019823;28;20119;-69
2022/10/25 12:15:22;;;;;;;3.60;2.05;;;14.90;99.90;;;;;;5023496;28;20037;-70
2022/10/25 12:17:49;;;;;;;1.13;1.08;;;14.80;99.90;;;;;;5035119;28;20034;-69
2022/10/25 12:20:27;;;;;;;1.30;1.25;;;14.70;99.90;;;;;;5026160;28;20416;-68
2022/10/25 12:22:57;;;;;;;1.70;1.60;;;14.60;99.90;;;;;;5028067;28;20033;-70
2022/10/25 12:25:31;;;;;;;1.35;1.25;;;14.60;99.90;;;;;;5028311;28;20035;-72
2022/10/25 12:28:12;;;;;;;1.35;1.25;;;14.50;99.90;;;;;;5029929;28;20060;-71
2022/10/25 12:30:39;;;;;;;9.02;2.55;;;14.50;99.90;;;;;;5026476;28;20366;-71
2022/10/25 12:33:42;;;;;;;0.47;0.47;;;14.40;99.90;;;;;;5027801;28;20368;-71
2022/10/25 12:36:21;;;;;;;0.75;0.75;;;14.40;99.90;;;;;;5027063;28;20041;-70
2022/10/25 12:38:47;;;;;;;1.38;1.27;;;14.30;99.90;;;;;;5026009;28;20029;-70
2022/10/25 12:41:23;;;;;;;0.43;0.43;;;14.40;99.90;;;;;;5028167;28;20026;-70
2022/10/25 12:44:11;;;;;;;0.93;0.93;;;14.30;99.90;;;;;;5028211;28;20047;-70
2022/10/25 12:47:05;;;;;;;2.00;1.80;;;14.20;99.90;;;;;;5028115;28;20422;-70
2022/10/25 12:49:49;;;;;;;0.80;0.80;;;14.30;99.90;;;;;;5017889;28;20364;-72
2022/10/25 12:52:29;;;;;;;0.60;0.60;;;14.20;99.90;;;;;;5028422;28;20057;-72
2022/10/25 12:55:14;;;;;;;4.00;2.13;;;14.20;99.90;;;;;;5027949;28;20034;-71
2022/10/25 12:58:04;;;;;;;2.42;2.22;;;14.10;99.90;;;;;;5029709;28;20075;-71
2022/10/25 13:01:03;;;;;;;1.33;0.85;;;14.10;99.90;;;;;;5010289;28;20029;-71
2022/10/25 13:03:50;;;;;;;1.27;1.20;;;14.10;99.90;;;;;;5022216;28;20107;-71
2022/10/25 13:06:34;;;;;;;1.83;1.73;;;14.10;99.90;;;;;;5027120;28;20358;-71
2022/10/25 13:09:15;;;;;;;0.85;0.85;;;14.10;99.90;;;;;;5028853;28;20091;-70
2022/10/25 13:12:07;;;;;;;1.15;1.05;;;14.10;99.90;;;;;;5029247;28;20067;-71